createdAt,value
2018-04-15T00:00:34.398Z,93.46
2018-04-15T00:01:34.397Z,93.17
2018-04-15T00:02:34.414Z,92.98
2018-04-15T00:03:34.390Z,93.17
2018-04-15T00:04:34.390Z,93.46
2018-04-15T00:05:34.380Z,92.98
2018-04-15T00:06:34.369Z,93.08
2018-04-15T00:07:34.364Z,93.46
2018-04-15T00:08:34.363Z,93.08
2018-04-15T00:09:34.355Z,93.17
2018-04-15T00:10:34.372Z,92.98
2018-04-15T00:11:34.341Z,93.27
2018-04-15T00:12:34.342Z,93.27
2018-04-15T00:13:34.352Z,92.50
2018-04-15T00:14:34.336Z,92.69
2018-04-15T00:15:34.328Z,92.69
2018-04-15T00:16:34.339Z,92.13
2018-04-15T00:17:34.320Z,91.94
2018-04-15T00:18:34.320Z,91.51
2018-04-15T00:19:34.312Z,91.79
2018-04-15T00:20:34.301Z,91.22
2018-04-15T00:21:34.296Z,91.70
2018-04-15T00:22:34.301Z,90.94
2018-04-15T00:23:34.284Z,91.03
2018-04-15T00:24:34.285Z,91.13
2018-04-15T00:25:34.286Z,90.65
2018-04-15T00:26:34.274Z,90.84
2018-04-15T00:27:34.261Z,90.75
2018-04-15T00:28:34.280Z,91.13
2018-04-15T00:29:34.264Z,91.60
2018-04-15T00:30:34.259Z,91.94
2018-04-15T00:31:34.250Z,90.94
2018-04-15T00:32:34.253Z,91.84
2018-04-15T00:33:34.236Z,91.03
2018-04-15T00:34:34.238Z,90.84
2018-04-15T00:35:34.229Z,90.94
2018-04-15T00:36:34.235Z,90.94
2018-04-15T00:37:34.218Z,90.84
2018-04-15T00:38:34.216Z,91.13
2018-04-15T00:39:34.210Z,91.03
2018-04-15T00:40:34.212Z,91.22
2018-04-15T00:41:34.228Z,91.31
2018-04-15T00:42:34.200Z,91.41
2018-04-15T00:43:34.193Z,91.22
2018-04-15T00:44:34.191Z,91.41
2018-04-15T00:45:34.180Z,90.65
2018-04-15T00:46:34.185Z,90.84
2018-04-15T00:47:34.171Z,91.13
2018-04-15T00:48:34.168Z,90.36
2018-04-15T00:49:34.158Z,90.27
2018-04-15T00:50:34.153Z,90.32
2018-04-15T00:51:34.148Z,89.75
2018-04-15T00:52:34.136Z,89.47
2018-04-15T00:53:34.146Z,89.27
2018-04-15T00:54:34.141Z,88.89
2018-04-15T00:55:34.121Z,88.51
2018-04-15T00:56:34.116Z,88.23
2018-04-15T00:57:34.106Z,88.18
2018-04-15T00:58:34.113Z,87.23
2018-04-15T00:59:34.108Z,87.42
2018-04-15T01:00:34.094Z,86.28
2018-04-15T01:01:34.108Z,86.18
2018-04-15T01:02:34.088Z,85.71
2018-04-15T01:03:34.088Z,85.42
2018-04-15T01:04:34.077Z,85.04
2018-04-15T01:05:34.078Z,85.28
2018-04-15T01:06:34.068Z,84.76
2018-04-15T01:07:34.058Z,84.76
2018-04-15T01:08:34.058Z,84.95
2018-04-15T01:09:34.060Z,84.76
2018-04-15T01:10:34.060Z,85.14
2018-04-15T01:11:34.034Z,85.14
2018-04-15T01:12:34.034Z,84.47
2018-04-15T01:13:34.026Z,84.47
2018-04-15T01:14:34.033Z,83.90
2018-04-15T01:15:34.010Z,84.24
2018-04-15T01:16:34.011Z,83.48
2018-04-15T01:17:34.004Z,83.19
2018-04-15T01:18:34.000Z,83.29
2018-04-15T01:19:33.989Z,82.81
2018-04-15T01:20:33.986Z,82.05
2018-04-15T01:21:33.990Z,81.86
2018-04-15T01:22:33.986Z,81.48
2018-04-15T01:23:33.968Z,80.63
2018-04-15T01:24:33.961Z,80.05
2018-04-15T01:25:33.953Z,79.96
2018-04-15T01:26:33.957Z,79.39
2018-04-15T01:27:33.943Z,79.11
2018-04-15T01:28:33.937Z,79.39
2018-04-15T01:29:33.940Z,79.30
2018-04-15T02:02:25.701Z,83.19
2018-04-15T02:03:25.673Z,83.29
2018-04-15T02:05:18.560Z,82.43
2018-04-15T02:06:18.533Z,81.86
2018-04-15T02:08:11.479Z,81.86
2018-04-15T02:09:11.449Z,80.63
2018-04-15T02:11:04.365Z,79.83
2018-04-15T02:12:04.330Z,79.06
2018-04-15T02:13:57.291Z,78.02
2018-04-15T02:14:57.264Z,77.36
2018-04-15T02:16:50.173Z,75.84
2018-04-15T02:17:50.148Z,75.64
2018-04-15T02:19:43.031Z,74.85
2018-04-15T02:20:43.022Z,74.08
2018-04-15T02:22:35.945Z,74.94
2018-04-15T02:23:35.911Z,75.04
2018-04-15T02:25:28.843Z,74.56
2018-04-15T02:26:28.804Z,73.71
2018-04-15T02:28:21.755Z,74.27
2018-04-15T02:29:21.734Z,73.80
2018-04-15T02:31:14.649Z,75.36
2018-04-15T02:32:14.604Z,75.74
2018-04-15T02:34:07.560Z,76.97
2018-04-15T02:35:07.523Z,78.78
2018-04-15T02:37:00.463Z,79.92
2018-04-15T02:38:00.410Z,79.73
2018-04-15T02:39:53.360Z,81.29
2018-04-15T02:40:53.370Z,81.20
2018-04-15T02:42:46.249Z,81.67
2018-04-15T02:43:46.235Z,81.10
2018-04-15T02:45:39.179Z,81.58
2018-04-15T02:46:39.139Z,81.96
2018-04-15T02:48:32.067Z,82.15
2018-04-15T02:49:32.025Z,82.71
2018-04-15T02:52:16.075Z,81.10
2018-04-15T02:53:16.039Z,80.53
2018-04-15T02:55:08.957Z,79.83
2018-04-15T02:56:08.951Z,79.92
2018-04-15T02:58:01.894Z,79.35
2018-04-15T02:59:01.865Z,79.06
2018-04-15T03:00:54.836Z,79.06
2018-04-15T03:01:54.807Z,79.44
2018-04-15T03:04:38.793Z,79.06
2018-04-15T03:05:38.771Z,78.97
2018-04-15T03:07:31.735Z,77.07
2018-04-15T03:08:31.730Z,76.59
2018-04-15T03:10:24.615Z,76.59
2018-04-15T03:11:24.588Z,76.97
2018-04-15T03:13:17.555Z,75.42
2018-04-15T03:14:17.529Z,74.66
2018-04-15T03:16:10.499Z,73.52
2018-04-15T03:17:10.468Z,73.61
2018-04-15T03:19:03.376Z,72.38
2018-04-15T03:20:03.349Z,72.19
2018-04-15T03:21:56.321Z,74.18
2018-04-15T03:22:56.292Z,73.90
2018-04-15T03:24:49.171Z,73.61
2018-04-15T03:25:49.171Z,73.42
2018-04-15T03:26:49.155Z,73.23
2018-04-15T03:27:49.141Z,72.56
2018-04-15T03:28:49.152Z,72.47
2018-04-15T03:29:49.128Z,72.19
2018-04-15T03:30:49.126Z,72.47
2018-04-15T03:31:49.229Z,70.95
2018-04-15T03:32:49.113Z,70.86
2018-04-15T03:33:49.103Z,70.67
2018-04-15T03:34:49.101Z,70.00
2018-04-15T03:35:49.107Z,71.04
2018-04-15T03:36:49.092Z,70.86
2018-04-15T03:37:49.076Z,71.52
2018-04-15T03:38:49.086Z,72.19
2018-04-15T03:39:49.061Z,72.56
2018-04-15T03:40:49.071Z,72.38
2018-04-15T03:41:49.048Z,72.75
2018-04-15T03:42:49.044Z,73.23
2018-04-15T03:43:49.044Z,73.23
2018-04-15T03:44:49.023Z,72.75
2018-04-15T03:45:49.025Z,73.04
2018-04-15T03:46:49.013Z,72.00
2018-04-15T03:47:49.013Z,71.33
2018-04-15T03:48:49.006Z,71.52
2018-04-15T03:49:48.999Z,72.00
2018-04-15T03:50:48.991Z,73.04
2018-04-15T03:51:49.007Z,73.52
2018-04-15T03:52:48.975Z,73.80
2018-04-15T03:53:48.980Z,73.80
2018-04-15T03:54:48.963Z,74.37
2018-04-15T03:55:48.955Z,74.60
2018-04-15T03:56:48.944Z,74.22
2018-04-15T03:57:48.962Z,73.99
2018-04-15T03:58:48.941Z,74.12
2018-04-15T03:59:48.947Z,74.98
2018-04-15T04:00:48.921Z,75.17
2018-04-15T04:01:48.918Z,75.74
2018-04-15T04:02:48.907Z,75.26
2018-04-15T04:03:48.903Z,75.45
2018-04-15T04:04:48.892Z,74.22
2018-04-15T04:05:48.888Z,74.22
2018-04-15T04:06:48.887Z,73.27
2018-04-15T04:07:48.875Z,73.52
2018-04-15T04:08:48.863Z,72.19
2018-04-15T04:09:48.857Z,72.00
2018-04-15T04:10:48.864Z,72.00
2018-04-15T04:11:48.865Z,70.86
2018-04-15T04:12:48.842Z,70.57
2018-04-15T04:13:48.834Z,69.34
2018-04-15T04:14:48.822Z,68.86
2018-04-15T04:15:48.821Z,69.62
2018-04-15T04:16:48.820Z,69.53
2018-04-15T04:17:48.807Z,68.16
2018-04-15T04:18:48.806Z,66.64
2018-04-15T04:19:48.797Z,66.55
2018-04-15T04:20:48.787Z,65.79
2018-04-15T04:21:48.775Z,65.69
2018-04-15T04:22:48.776Z,65.12
2018-04-15T04:23:48.767Z,65.12
2018-04-15T04:24:48.752Z,65.82
2018-04-15T04:25:48.748Z,65.73
2018-04-15T04:26:48.745Z,65.63
2018-04-15T04:27:48.758Z,65.92
2018-04-15T04:28:48.728Z,65.63
2018-04-15T04:29:48.709Z,65.54
2018-04-15T04:30:48.736Z,65.63
2018-04-15T04:31:48.710Z,65.82
2018-04-15T04:32:48.705Z,66.39
2018-04-15T04:33:48.689Z,67.53
2018-04-15T04:34:48.697Z,65.06
2018-04-15T04:35:48.692Z,64.75
2018-04-15T04:36:48.670Z,64.75
2018-04-15T04:37:48.668Z,64.65
2018-04-15T04:38:48.667Z,65.41
2018-04-15T04:39:48.642Z,65.31
2018-04-15T04:40:48.644Z,65.31
2018-04-15T04:41:48.632Z,65.50
2018-04-15T04:42:48.633Z,64.17
2018-04-15T04:43:48.617Z,63.23
2018-04-15T04:44:48.615Z,62.46
2018-04-15T04:45:48.602Z,61.61
2018-04-15T04:46:48.597Z,60.66
2018-04-15T04:47:48.597Z,60.10
2018-04-15T04:48:48.580Z,59.43
2018-04-15T04:49:48.575Z,59.62
2018-04-15T04:50:48.574Z,58.48
2018-04-15T04:51:48.575Z,58.58
2018-04-15T04:52:48.561Z,58.48
2018-04-15T04:53:48.566Z,58.76
2018-04-15T04:54:48.545Z,58.39
2018-04-15T04:55:48.542Z,59.05
2018-04-15T04:56:48.529Z,58.86
2018-04-15T04:57:48.531Z,60.00
2018-04-15T04:58:48.528Z,59.81
2018-04-15T04:59:48.515Z,60.47
2018-04-15T05:00:48.507Z,60.57
2018-04-15T05:01:48.513Z,60.76
2018-04-15T05:02:48.498Z,60.95
2018-04-15T05:03:48.481Z,60.95
2018-04-15T05:04:48.468Z,60.38
2018-04-15T05:05:48.459Z,60.28
2018-04-15T05:06:48.461Z,60.19
2018-04-15T05:07:48.457Z,60.38
2018-04-15T05:08:48.448Z,60.88
2018-04-15T05:09:48.434Z,61.45
2018-04-15T05:10:48.430Z,63.92
2018-04-15T05:11:48.428Z,65.25
2018-04-15T05:12:48.421Z,65.44
2018-04-15T05:13:48.422Z,67.63
2018-04-15T05:14:48.407Z,68.39
2018-04-15T05:15:48.392Z,70.00
2018-04-15T05:16:48.407Z,68.90
2018-04-15T05:17:48.389Z,70.19
2018-04-15T05:18:48.380Z,70.19
2018-04-15T05:19:48.364Z,70.67
2018-04-15T05:20:48.362Z,70.95
2018-04-15T05:21:48.361Z,69.91
2018-04-15T05:22:48.355Z,70.29
2018-04-15T05:23:48.343Z,70.67
2018-04-15T05:24:48.354Z,71.14
2018-04-15T05:25:48.339Z,71.14
2018-04-15T05:26:48.326Z,70.95
2018-04-15T05:27:48.325Z,72.00
2018-04-15T05:28:48.317Z,72.32
2018-04-15T05:29:48.317Z,73.27
2018-04-15T05:30:48.322Z,72.99
2018-04-15T05:31:48.298Z,73.74
2018-04-15T05:32:48.294Z,73.18
2018-04-15T05:33:48.284Z,73.74
2018-04-15T05:34:48.289Z,73.55
2018-04-15T05:35:48.283Z,74.31
2018-04-15T05:36:48.268Z,75.17
2018-04-15T05:37:48.269Z,74.51
2018-04-15T05:38:48.250Z,74.98
2018-04-15T05:39:48.251Z,74.22
2018-04-15T05:40:48.244Z,74.03
2018-04-15T05:41:48.240Z,73.55
2018-04-15T05:42:48.222Z,74.12
2018-04-15T05:43:48.224Z,74.60
2018-04-15T05:44:48.224Z,74.88
2018-04-15T05:45:48.222Z,75.07
2018-04-15T05:46:48.211Z,73.74
2018-04-15T05:47:48.205Z,73.65
2018-04-15T05:48:48.189Z,74.12
2018-04-15T05:49:48.196Z,74.31
2018-04-15T05:50:48.194Z,74.92
2018-04-15T05:51:48.195Z,74.98
2018-04-15T05:52:48.189Z,74.98
2018-04-15T05:53:48.184Z,75.64
2018-04-15T05:54:48.167Z,75.59
2018-04-15T05:55:48.162Z,76.44
2018-04-15T05:56:48.170Z,76.92
2018-04-15T05:57:48.151Z,77.58
2018-04-15T05:58:48.143Z,77.20
2018-04-15T05:59:48.162Z,77.97
2018-04-15T06:00:48.148Z,76.82
2018-04-15T06:01:48.133Z,76.44
2018-04-15T06:02:48.126Z,77.58
2018-04-15T06:03:48.124Z,78.53
2018-04-15T06:04:48.112Z,78.77
2018-04-15T06:05:48.102Z,78.29
2018-04-15T06:06:48.109Z,79.24
2018-04-15T06:07:48.095Z,80.10
2018-04-15T06:08:48.097Z,79.72
2018-04-15T06:09:48.098Z,79.14
2018-04-15T06:10:48.088Z,80.76
2018-04-15T06:11:48.079Z,81.81
2018-04-15T06:12:48.084Z,81.05
2018-04-15T06:13:48.075Z,81.71
2018-04-15T06:14:48.280Z,81.66
2018-04-15T06:15:48.098Z,81.09
2018-04-15T06:16:48.067Z,82.61
2018-04-15T06:17:48.067Z,82.42
2018-04-15T06:18:48.049Z,82.80
2018-04-15T06:19:48.048Z,83.09
2018-04-15T06:20:48.055Z,84.04
2018-04-15T06:21:48.046Z,83.85
2018-04-15T06:22:48.052Z,84.70
2018-04-15T06:23:48.046Z,84.94
2018-04-15T06:24:48.032Z,87.03
2018-04-15T06:25:48.026Z,85.70
2018-04-15T06:26:48.024Z,87.13
2018-04-15T06:27:48.015Z,86.94
2018-04-15T06:28:48.039Z,86.18
2018-04-15T06:29:48.018Z,85.60
2018-04-15T06:30:48.020Z,85.89
2018-04-15T06:31:48.010Z,85.03
2018-04-15T06:32:47.997Z,85.70
2018-04-15T06:33:47.998Z,85.32
2018-04-15T06:34:48.007Z,83.70
2018-04-15T06:35:47.989Z,84.84
2018-04-15T06:36:48.016Z,85.17
2018-04-15T06:37:47.998Z,85.74
2018-04-15T06:38:48.000Z,84.88
2018-04-15T06:39:47.983Z,87.27
2018-04-15T06:40:47.973Z,88.03
2018-04-15T06:41:47.975Z,87.55
2018-04-15T06:42:47.964Z,87.17
2018-04-15T06:43:47.964Z,86.79
2018-04-15T06:44:47.946Z,87.46
2018-04-15T06:45:47.987Z,86.69
2018-04-15T06:46:47.958Z,87.50
2018-04-15T06:47:47.947Z,89.12
2018-04-15T06:48:47.957Z,89.65
2018-04-15T06:49:47.950Z,89.12
2018-04-15T06:50:47.936Z,87.69
2018-04-15T06:51:47.937Z,86.51
2018-04-15T06:52:47.948Z,86.32
2018-04-15T06:53:47.938Z,85.08
2018-04-15T06:54:47.938Z,85.93
2018-04-15T06:55:47.960Z,86.03
2018-04-15T06:56:47.933Z,86.12
2018-04-15T06:57:47.927Z,85.12
2018-04-15T06:58:47.926Z,86.16
2018-04-15T06:59:47.914Z,86.83
2018-04-15T07:00:47.909Z,88.45
2018-04-15T07:01:47.914Z,88.84
2018-04-15T07:02:47.925Z,89.31
2018-04-15T07:03:47.907Z,88.07
2018-04-15T07:04:47.907Z,89.12
2018-04-15T07:05:47.906Z,87.69
2018-04-15T07:06:47.908Z,88.31
2018-04-15T07:07:47.914Z,88.40
2018-04-15T07:08:47.897Z,88.21
2018-04-15T07:09:47.888Z,87.64
2018-04-15T07:10:47.898Z,88.69
2018-04-15T07:11:47.889Z,88.31
2018-04-15T07:12:47.890Z,90.59
2018-04-15T07:13:47.897Z,89.88
2018-04-15T07:14:47.897Z,90.55
2018-04-15T07:15:47.873Z,90.45
2018-04-15T07:16:47.873Z,91.31
2018-04-15T07:17:47.887Z,91.31
2018-04-15T07:18:47.873Z,91.98
2018-04-15T07:19:47.883Z,91.60
2018-04-15T07:20:47.884Z,92.46
2018-04-15T07:21:47.918Z,91.21
2018-04-15T07:22:47.872Z,92.60
2018-04-15T07:23:47.856Z,93.17
2018-04-15T07:24:47.864Z,92.60
2018-04-15T07:25:47.901Z,93.55
2018-04-15T07:26:47.852Z,93.93
2018-04-15T07:27:47.860Z,94.12
2018-04-15T07:28:47.854Z,94.22
2018-04-15T07:29:47.857Z,93.98
2018-04-15T07:30:47.847Z,93.21
2018-04-15T07:31:47.852Z,94.17
2018-04-15T07:32:47.844Z,93.70
2018-04-15T07:33:47.882Z,94.74
2018-04-15T07:34:47.840Z,94.46
2018-04-15T07:35:47.855Z,93.21
2018-04-15T07:36:47.836Z,93.41
2018-04-15T07:37:47.844Z,93.31
2018-04-15T07:38:47.843Z,93.36
2018-04-15T07:39:47.841Z,93.65
2018-04-15T07:40:47.836Z,93.60
2018-04-15T07:41:47.828Z,94.46
2018-04-15T07:42:47.833Z,93.50
2018-04-15T07:43:47.840Z,93.60
2018-04-15T07:44:47.834Z,93.93
2018-04-15T07:45:47.825Z,94.41
2018-04-15T07:46:47.833Z,93.55
2018-04-15T07:47:47.851Z,94.41
2018-04-15T07:48:47.829Z,93.93
2018-04-15T07:49:47.834Z,93.26
2018-04-15T07:50:47.828Z,93.45
2018-04-15T07:51:47.825Z,93.45
2018-04-15T07:52:47.822Z,93.79
2018-04-15T07:53:47.828Z,93.45
2018-04-15T07:54:47.822Z,94.36
2018-04-15T07:55:47.829Z,92.45
2018-04-15T07:56:47.840Z,92.97
2018-04-15T07:57:47.823Z,93.45
2018-04-15T07:58:47.821Z,94.31
2018-04-15T07:59:47.835Z,93.74
2018-04-15T08:00:47.836Z,94.36
2018-04-15T08:01:47.823Z,94.46
2018-04-15T08:02:47.820Z,93.98
2018-04-15T08:03:47.827Z,94.36
2018-04-15T08:04:47.817Z,93.70
2018-04-15T08:05:47.837Z,94.41
2018-04-15T08:06:47.818Z,93.55
2018-04-15T08:07:47.881Z,93.55
2018-04-15T08:08:47.823Z,93.65
2018-04-15T08:09:47.815Z,93.84
2018-04-15T08:10:47.825Z,93.74
2018-04-15T08:11:47.815Z,93.93
2018-04-15T08:12:47.806Z,91.93
2018-04-15T08:13:47.826Z,93.84
2018-04-15T08:14:47.821Z,91.54
2018-04-15T08:15:47.810Z,92.11
2018-04-15T08:16:47.809Z,92.35
2018-04-15T08:17:47.810Z,92.93
2018-04-15T08:18:47.827Z,91.97
2018-04-15T08:19:47.812Z,92.07
2018-04-15T08:20:47.804Z,91.93
2018-04-15T08:21:47.806Z,91.54
2018-04-15T08:22:47.799Z,91.54
2018-04-15T08:23:47.800Z,90.25
2018-04-15T08:24:47.811Z,91.59
2018-04-15T08:25:47.809Z,91.11
2018-04-15T08:26:47.810Z,91.88
2018-04-15T08:27:47.800Z,91.69
2018-04-15T08:28:47.800Z,92.07
2018-04-15T08:29:47.801Z,91.45
2018-04-15T08:30:47.802Z,92.59
2018-04-15T08:31:47.803Z,91.83
2018-04-15T08:32:47.796Z,91.78
2018-04-15T08:33:47.791Z,94.26
2018-04-15T08:34:47.809Z,93.60
2018-04-15T08:35:47.795Z,93.98
2018-04-15T08:36:47.802Z,95.03
2018-04-15T08:37:47.797Z,93.69
2018-04-15T08:38:47.803Z,93.69
2018-04-15T08:39:47.794Z,93.45
2018-04-15T08:40:47.805Z,94.65
2018-04-15T08:41:47.802Z,94.31
2018-04-15T08:42:47.792Z,94.60
2018-04-15T08:43:47.793Z,94.70
2018-04-15T08:44:47.793Z,94.50
2018-04-15T08:45:47.813Z,94.60
2018-04-15T08:46:47.808Z,94.31
2018-04-15T08:47:47.785Z,94.21
2018-04-15T08:48:47.818Z,94.98
2018-04-15T08:49:47.798Z,95.27
2018-04-15T08:50:47.793Z,94.50
2018-04-15T08:51:47.787Z,95.46
2018-04-15T08:52:47.783Z,94.60
2018-04-15T08:53:47.791Z,95.46
2018-04-15T08:54:47.802Z,94.98
2018-04-15T08:55:47.783Z,94.70
2018-04-15T08:56:47.788Z,95.17
2018-04-15T08:57:47.815Z,94.79
2018-04-15T08:58:47.802Z,94.84
2018-04-15T08:59:47.801Z,95.17
2018-04-15T09:00:47.788Z,94.93
2018-04-15T09:01:47.796Z,92.93
2018-04-15T09:02:47.794Z,93.69
2018-04-15T09:03:47.795Z,92.93
2018-04-15T09:04:47.798Z,95.41
2018-04-15T09:05:47.823Z,93.64
2018-04-15T09:06:47.798Z,95.75
2018-04-15T09:07:47.805Z,95.17
2018-04-15T09:08:47.792Z,94.74
2018-04-15T09:09:47.833Z,95.41
2018-04-15T09:10:47.800Z,94.79
2018-04-15T09:11:47.820Z,95.03
2018-04-15T09:12:47.815Z,96.22
2018-04-15T09:13:47.819Z,95.46
2018-04-15T09:14:47.819Z,95.36
2018-04-15T09:15:47.831Z,94.02
2018-04-15T09:16:47.832Z,93.26
2018-04-15T09:17:47.813Z,93.74
2018-04-15T09:18:47.830Z,93.11
2018-04-15T09:19:47.818Z,93.54
2018-04-15T09:20:47.821Z,93.63
2018-04-15T09:21:47.828Z,92.39
2018-04-15T09:22:47.848Z,92.58
2018-04-15T09:23:47.833Z,93.35
2018-04-15T09:24:47.829Z,94.02
2018-04-15T09:25:47.850Z,94.55
2018-04-15T09:26:47.847Z,94.84
2018-04-15T09:27:47.841Z,94.60
2018-04-15T09:28:47.864Z,95.36
2018-04-15T09:29:47.864Z,96.37
2018-04-15T09:30:47.865Z,95.79
2018-04-15T09:31:47.855Z,95.41
2018-04-15T09:32:47.866Z,94.69
2018-04-15T09:33:47.883Z,94.60
2018-04-15T09:34:47.869Z,95.46
2018-04-15T09:35:47.885Z,94.45
2018-04-15T09:36:47.888Z,93.69
2018-04-15T09:37:47.891Z,93.26
2018-04-15T09:38:47.895Z,94.59
2018-04-15T09:39:47.897Z,94.54
2018-04-15T09:40:47.904Z,93.30
2018-04-15T09:41:47.917Z,93.64
2018-04-15T09:42:47.913Z,94.02
2018-04-15T09:43:47.920Z,95.22
2018-04-15T09:44:47.913Z,94.07
2018-04-15T09:45:47.936Z,94.64
2018-04-15T09:46:47.937Z,94.26
2018-04-15T09:47:47.939Z,93.78
2018-04-15T09:48:47.938Z,93.59
2018-04-15T09:49:47.971Z,92.01
2018-04-15T09:50:47.937Z,92.39
2018-04-15T09:51:47.957Z,92.06
2018-04-15T09:52:47.950Z,93.11
2018-04-15T09:53:47.965Z,93.88
2018-04-15T09:54:47.961Z,94.84
2018-04-15T09:55:47.966Z,93.59
2018-04-15T09:56:47.968Z,93.93
2018-04-15T09:57:48.007Z,91.09
2018-04-15T09:58:47.986Z,90.61
2018-04-15T09:59:47.987Z,90.14
2018-04-15T10:00:47.993Z,91.72
2018-04-15T10:01:48.002Z,91.63
2018-04-15T10:02:48.009Z,92.63
2018-04-15T10:03:48.016Z,92.92
2018-04-15T10:04:48.007Z,94.45
2018-04-15T10:05:48.029Z,95.27
2018-04-15T10:06:48.027Z,94.26
2018-04-15T10:07:48.028Z,94.26
2018-04-15T10:08:48.030Z,94.26
2018-04-15T10:09:48.038Z,93.11
2018-04-15T10:10:48.036Z,93.30
2018-04-15T10:11:48.049Z,93.35
2018-04-15T10:12:48.042Z,93.21
2018-04-15T10:13:48.054Z,94.35
2018-04-15T10:14:48.058Z,93.88
2018-04-15T10:15:48.047Z,93.02
2018-04-15T10:16:48.055Z,93.02
2018-04-15T10:17:48.058Z,93.93
2018-04-15T10:18:48.059Z,86.60
2018-04-15T10:19:48.067Z,84.49
2018-04-15T10:20:48.077Z,84.78
2018-04-15T10:21:48.075Z,82.32
2018-04-15T10:22:48.091Z,82.57
2018-04-15T10:23:48.083Z,88.99
2018-04-15T10:24:48.095Z,91.67
2018-04-15T10:25:48.101Z,91.96
2018-04-15T10:26:48.085Z,89.66
2018-04-15T10:27:48.097Z,91.58
2018-04-15T10:28:48.109Z,93.40
2018-04-15T10:29:48.093Z,93.88
2018-04-15T10:30:48.085Z,91.49
2018-04-15T10:31:48.102Z,91.43
2018-04-15T10:32:48.102Z,86.79
2018-04-15T10:33:48.107Z,81.75
2018-04-15T10:34:48.120Z,82.94
2018-04-15T10:35:48.123Z,78.30
2018-04-15T10:36:48.116Z,74.08
2018-04-15T10:37:48.110Z,77.58
2018-04-15T10:38:48.170Z,74.37
2018-04-15T10:39:48.142Z,78.05
2018-04-15T10:40:48.135Z,75.60
2018-04-15T10:41:48.128Z,73.75
2018-04-15T10:42:48.128Z,66.61
2018-04-15T10:43:48.142Z,67.03
2018-04-15T10:44:48.144Z,64.53
2018-04-15T10:45:48.139Z,61.97
2018-04-15T10:46:48.165Z,60.65
2018-04-15T10:47:48.175Z,59.94
2018-04-15T10:48:48.161Z,59.94
2018-04-15T10:49:48.188Z,58.40
2018-04-15T10:50:48.205Z,58.12
2018-04-15T10:51:48.188Z,58.92
2018-04-15T10:52:48.201Z,58.28
2018-04-15T10:53:48.221Z,58.02
2018-04-15T10:54:48.203Z,58.86
2018-04-15T10:55:48.227Z,58.22
2018-04-15T10:56:48.233Z,56.25
2018-04-15T10:57:48.253Z,59.94
2018-04-15T10:58:48.278Z,55.44
2018-04-15T10:59:48.273Z,55.82
2018-04-15T11:00:48.296Z,57.53
2018-04-15T11:01:48.282Z,54.40
2018-04-15T11:02:48.348Z,53.17
2018-04-15T11:03:48.309Z,50.21
2018-04-15T11:04:48.330Z,50.59
2018-04-15T11:05:48.341Z,51.78
2018-04-15T11:06:48.348Z,51.92
2018-04-15T11:07:48.340Z,51.61
2018-04-15T11:08:48.355Z,51.53
2018-04-15T11:09:48.360Z,51.95
2018-04-15T11:10:48.375Z,52.94
2018-04-15T11:11:48.406Z,53.93
2018-04-15T11:12:48.410Z,54.07
2018-04-15T11:13:48.427Z,54.00
2018-04-15T11:14:48.431Z,50.91
2018-04-15T11:15:48.439Z,49.46
2018-04-15T11:16:48.452Z,49.60
2018-04-15T11:17:48.466Z,48.37
2018-04-15T11:18:48.491Z,47.11
2018-04-15T11:19:48.494Z,46.15
2018-04-15T11:20:48.504Z,44.84
2018-04-15T11:21:48.521Z,45.40
2018-04-15T11:22:48.576Z,44.72
2018-04-15T11:23:48.547Z,45.57
2018-04-15T11:24:48.569Z,47.65
2018-04-15T11:25:48.595Z,48.32
2018-04-15T11:26:48.598Z,49.63
2018-04-15T11:27:48.618Z,50.43
2018-04-15T11:28:48.631Z,50.40
2018-04-15T11:29:48.642Z,51.37
2018-04-15T11:30:48.700Z,49.97
2018-04-15T11:31:48.662Z,49.49
2018-04-15T11:32:48.687Z,48.93
2018-04-15T11:33:48.700Z,48.37
2018-04-15T11:34:48.719Z,48.66
2018-04-15T11:35:48.732Z,48.76
2018-04-15T11:36:48.841Z,50.13
2018-04-15T11:37:48.760Z,52.33
2018-04-15T11:38:48.786Z,54.10
2018-04-15T11:39:48.785Z,56.10
2018-04-15T11:40:48.812Z,58.95
2018-04-15T11:41:48.807Z,58.12
2018-04-15T11:42:48.813Z,57.28
2018-04-15T11:43:48.851Z,56.73
2018-04-15T11:44:48.838Z,56.73
2018-04-15T11:45:48.873Z,57.86
2018-04-15T11:46:48.858Z,55.41
2018-04-15T11:47:48.860Z,53.96
2018-04-15T11:48:48.877Z,53.99
2018-04-15T11:49:48.891Z,53.51
2018-04-15T11:50:48.905Z,52.73
2018-04-15T11:51:48.905Z,53.89
2018-04-15T11:52:48.918Z,54.74
2018-04-15T11:53:48.922Z,54.69
2018-04-15T11:54:48.936Z,50.86
2018-04-15T11:55:48.947Z,50.79
2018-04-15T11:56:48.956Z,52.28
2018-04-15T11:57:48.971Z,53.13
2018-04-15T11:58:48.996Z,55.63
2018-04-15T11:59:49.037Z,55.60
2018-04-15T12:00:49.000Z,55.02
2018-04-15T12:01:49.014Z,58.08
2018-04-15T12:02:49.022Z,55.63
2018-04-15T12:03:49.033Z,54.83
2018-04-15T12:04:49.043Z,55.48
2018-04-15T12:05:49.068Z,56.05
2018-04-15T12:06:49.076Z,54.61
2018-04-15T12:07:49.083Z,56.18
2018-04-15T12:08:49.088Z,57.73
2018-04-15T12:09:49.104Z,60.52
2018-04-15T12:10:49.108Z,59.01
2018-04-15T12:11:49.130Z,58.44
2018-04-15T12:12:49.121Z,58.53
2018-04-15T12:13:49.128Z,57.92
2018-04-15T12:14:49.147Z,56.72
2018-04-15T12:15:49.151Z,54.60
2018-04-15T12:16:49.164Z,52.89
2018-04-15T12:17:49.168Z,53.15
2018-04-15T12:18:49.177Z,54.64
2018-04-15T12:19:49.191Z,55.67
2018-04-15T12:20:49.199Z,54.32
2018-04-15T12:21:49.215Z,55.41
2018-04-15T12:22:49.228Z,54.64
2018-04-15T12:23:49.232Z,54.66
2018-04-15T12:24:49.243Z,53.31
2018-04-15T12:25:49.243Z,53.34
2018-04-15T12:26:49.274Z,52.76
2018-04-15T12:27:49.263Z,52.83
2018-04-15T12:28:49.272Z,52.93
2018-04-15T12:29:49.290Z,54.18
2018-04-15T12:30:49.285Z,53.61
2018-04-15T12:31:49.303Z,54.14
2018-04-15T12:32:49.307Z,51.82
2018-04-15T12:33:49.366Z,50.32
2018-04-15T12:34:49.328Z,53.25
2018-04-15T12:35:49.358Z,54.03
2018-04-15T12:36:49.342Z,54.87
2018-04-15T12:37:49.378Z,58.89
2018-04-15T12:38:49.368Z,58.82
2018-04-15T12:39:49.379Z,56.41
2018-04-15T12:40:49.422Z,59.08
2018-04-15T12:41:49.394Z,58.09
2018-04-15T12:42:49.401Z,58.40
2018-04-15T12:43:49.410Z,62.32
2018-04-15T12:44:49.412Z,58.92
2018-04-15T12:45:49.413Z,59.12
2018-04-15T12:46:49.424Z,60.94
2018-04-15T12:47:49.427Z,59.79
2018-04-15T12:48:49.444Z,58.09
2018-04-15T12:49:49.455Z,59.72
2018-04-15T12:50:49.463Z,59.63
2018-04-15T12:51:49.471Z,58.18
2018-04-15T12:52:49.459Z,62.99
2018-04-15T12:53:49.496Z,60.39
2018-04-15T12:54:49.489Z,58.95
2018-04-15T12:55:49.494Z,59.24
2018-04-15T12:56:49.494Z,62.90
2018-04-15T12:57:49.490Z,60.14
2018-04-15T12:58:49.496Z,60.04
2018-04-15T12:59:49.504Z,59.01
2018-04-15T13:00:49.508Z,59.56
2018-04-15T13:01:49.514Z,59.66
2018-04-15T13:02:49.547Z,59.72
2018-04-15T13:03:49.542Z,60.78
2018-04-15T13:04:49.556Z,61.14
2018-04-15T13:05:49.531Z,59.89
2018-04-15T13:06:49.545Z,59.41
2018-04-15T13:07:49.556Z,61.23
2018-04-15T13:08:49.553Z,63.06
2018-04-15T13:09:49.561Z,61.65
2018-04-15T13:10:49.557Z,61.36
2018-04-15T13:11:49.566Z,63.95
2018-04-15T13:12:49.591Z,60.59
2018-04-15T13:13:49.574Z,60.49
2018-04-15T13:14:49.591Z,60.78
2018-04-15T13:15:49.579Z,62.71
2018-04-15T13:16:49.585Z,60.01
2018-04-15T13:17:49.594Z,61.29
2018-04-15T13:18:49.610Z,61.19
2018-04-15T13:19:49.594Z,60.72
2018-04-15T13:20:49.602Z,61.68
2018-04-15T13:21:49.615Z,60.72
2018-04-15T13:22:49.605Z,60.42
2018-04-15T13:23:49.608Z,60.69
2018-04-15T13:24:49.621Z,61.16
2018-04-15T13:25:49.627Z,59.22
2018-04-15T13:26:49.628Z,59.69
2018-04-15T13:27:49.629Z,59.50
2018-04-15T13:28:49.675Z,58.57
2018-04-15T13:29:49.637Z,58.47
2018-04-15T13:30:49.640Z,55.43
2018-04-15T13:31:49.647Z,57.92
2018-04-15T13:32:49.650Z,60.52
2018-04-15T13:33:49.649Z,60.52
2018-04-15T13:34:49.649Z,59.63
2018-04-15T13:35:49.652Z,60.37
2018-04-15T13:36:49.683Z,60.85
2018-04-15T13:37:49.660Z,57.58
2018-04-15T13:38:49.672Z,59.12
2018-04-15T13:39:49.699Z,58.35
2018-04-15T13:40:49.673Z,58.54
2018-04-15T13:41:49.671Z,58.06
2018-04-15T13:42:49.690Z,57.07
2018-04-15T13:43:49.685Z,56.52
2018-04-15T13:44:49.706Z,56.14
2018-04-15T13:45:49.691Z,56.14
2018-04-15T13:46:49.678Z,56.23
2018-04-15T13:47:49.689Z,57.03
2018-04-15T13:48:49.729Z,56.07
2018-04-15T13:49:49.694Z,56.48
2018-04-15T13:50:49.726Z,54.85